CheckWX is a tool to help pilots better visualize weather data.  It is not intended as a substitute for an official pre-flight weather briefing.

09:10:47 UTC

KBGM TAF
Greater Binghamton / Edwin A Link Field Airport
Binghamton, New York, USA
KBGM 240839Z 2409/2506 32012KT P6SM BKN070 FM241100 30012G22KT P6SM BKN025 TEMPO 2412/2416 BKN015 FM242200 34007KT P6SM SCT035

May-24@
09:00 UTC

May-24 @ 09:00 UTC

May-24@
11:00 UTC

May-24 @ 11:00 UTC

KBGM 240839Z 2409/2506 32012KT P6SM BKN070
Wind
  • 320° at 12 KTS
Cloud Levels
  • Broken at 7,000' AGL

May-24@
11:00 UTC

May-24 @ 11:00 UTC

May-24@
22:00 UTC

May-24 @ 22:00 UTC

FM241100 30012G22KT P6SM BKN025

From

From Standard forecast or significant change

Wind
  • 300° at 12 KTS
  • {Gusting to 22 KTS
Cloud Levels
  • Broken at 2,500' AGL

May-24@
12:00 UTC

May-24 @ 12:00 UTC

May-24@
16:00 UTC

May-24 @ 16:00 UTC

TEMPO 2412/2416 BKN015

Temporary

Temporary Changes expected for less than half the time period

Cloud Levels
  • Broken at 1,500' AGL

May-24@
22:00 UTC

May-24 @ 22:00 UTC

May-25@
06:00 UTC

May-25 @ 06:00 UTC

FM242200 34007KT P6SM SCT035

From

From Standard forecast or significant change

Wind
  • 340° at 7 KTS
Cloud Levels
  • Scattered at 3,500' AGL